Hit Tracker is now ESPN Home Run Tracker! Hit Tracker founder Greg Rybarczyk is now collaborating with the ESPN Stats & Information Group to continue tracking all MLB home runs, and helping baseball fans know "How Far It Really Went!™" Please credit any information on this site to ESPN Stats & Information Group. For more information and analysis on home runs, please contact founder Greg Rybarczyk. E-Mail ESPN Home Run Tracker
Main Page | Ballparks | Park Overlays | Glossary | Highlight Homers | Feedback | Bio | 3 Types of HR's | AAA Home Run Derby Last Updated: August 4, 2015, 10:26 pm PST
Welcome to the ESPN Home Run Tracker! Check out the ESPN MLB Scoreboard throughout the 2015 season! Contact us at grybar@hittrackeronline.com.
Season:
Ballpark detail for Minute Maid Park
Ballpark # of Home Runs HR per game Avg.
True
Distance
Avg.
Speed
Off
Bat
Avg.
Std.
Dist.
Minute Maid Park 138 2.46 386.4 102 384.7

Scatter Plot of Home Runs Minute Maid Park
 Overlay Ballpark:
Without range rings   With range rings

2015 Season Home Runs for Minute Maid Park
Click headers to sort
Date ^ Video Path Hitter Hitter
Team
Pitcher Pitcher
Team
INN Ballpark Type/
Luck
True
Dist.
Speed
Off
Bat
Elev.
Angle
Horiz.
Angle
Apex Impact Due To: Std.
Dist.
#
Parks
Wind Temp. Alt.
08/02/15 Video View Gattis, Evan HOU Ray, Robbie ARI 5 Minute Maid ... PL 395 102.8 28.5 69.8 88 0 0 0 395 30
08/01/15 Video View Correa, Carlos HOU Hellickson, Jeremy ARI 1 Minute Maid ... PL 344 94.3 33.3 120.2 89 0 1 0 343 6
08/01/15 Video View Conger, Hank HOU Hellickson, Jeremy ARI 3 Minute Maid ... PL 373 99.5 33.7 65.9 107 0 0 0 373 29
08/01/15 Video View Conger, Hank HOU Hellickson, Jeremy ARI 4 Minute Maid ... ND 414 105.2 32.1 74.4 121 0 1 0 413 30
08/01/15 Video View Correa, Carlos HOU Collmenter, Josh ARI 6 Minute Maid ... JE 383 98.4 29.2 76.2 90 0 0 0 383 19
07/31/15 Video View Castro, Jason HOU De La Rosa, Rubby ARI 5 Minute Maid ... JE 358 99.2 24.8 110.2 61 0 0 0 358 1
07/31/15 Video View Correa, Carlos HOU De La Rosa, Rubby ARI 5 Minute Maid ... JE 369 104.3 22.7 111.0 56 0 0 0 369 7
07/31/15 Video View Castillo, Welington ARI Neshek, Pat HOU 10 Minute Maid ... PL 374 107.1 24.4 126.3 60 0 0 0 374 30
07/31/15 Video View Lamb, Jake ARI Neshek, Pat HOU 10 Minute Maid ... ND 395 103.9 34.0 68.5 123 0 1 0 394 30
07/30/15 Video View Castro, Jason HOU Salas, Fernando LAA 9 Minute Maid ... PL 394 100.0 30.2 76.8 100 0 0 0 393 26
07/29/15 Video View Tucker, Preston HOU Richards, Garrett LAA 6 Minute Maid ... PL 419 110.3 21.0 80.6 64 0 0 0 419 28
07/29/15 Video View Singleton, Jon HOU Richards, Garrett LAA 7 Minute Maid ... PL 406 102.5 27.0 79.5 88 0 1 0 406 27
07/29/15 Video View Pujols, Albert LAA Gregerson, Luke HOU 9 Minute Maid ... PL 365 98.7 37.0 106.0 133 0 1 0 364 11
07/28/15 Video View Correa, Carlos HOU Wilson, C.J. LAA 1 Minute Maid ... PL 368 98.6 31.3 63.2 90 0 0 0 368 28
07/28/15 Video View Carter, Chris HOU Wilson, C.J. LAA 2 Minute Maid ... PL 431 109.0 22.5 83.1 75 0 0 0 431 28
07/28/15 Video View Iannetta, Chris LAA McHugh, Collin HOU 3 Minute Maid ... JE 353 95.4 27.9 110.2 72 0 0 0 353 1
07/23/15 Video View Gonzalez, Marwin HOU Miley, Wade BOS 1 Minute Maid ... ND 383 102.4 29.7 119.2 86 0 0 0 382 30
07/23/15 Video View Napoli, Mike BOS McCullers, Lance HOU 2 Minute Maid ... ND 396 103.2 27.4 109.0 83 0 0 0 396 30
07/23/15 Video View Rasmus, Colby HOU Ogando, Alexi BOS 7 Minute Maid ... ND 387 105.1 26.4 62.2 72 0 0 0 387 30
07/23/15 Video View Ortiz, David BOS Harris, Will HOU 8 Minute Maid ... PL 351 95.0 34.1 64.7 99 0 0 0 350 16
07/23/15 Video View Altuve, Jose HOU Breslow, Craig BOS 9 Minute Maid ... JE 361 102.2 22.7 109.2 55 0 0 0 361 1
07/22/15 Video View Tucker, Preston HOU Kelly, Joe BOS 1 Minute Maid ... PL 419 105.8 23.2 95.4 75 0 0 0 419 26
07/22/15 Video View Gattis, Evan HOU Kelly, Joe BOS 4 Minute Maid ... JE 364 105.7 21.7 112.7 52 0 0 0 364 3
07/22/15 Video View Tucker, Preston HOU Kelly, Joe BOS 5 Minute Maid ... PL 350 98.3 38.3 66.2 131 0 1 0 348 20
07/21/15 Video View Carter, Chris HOU Masterson, Justin BOS 6 Minute Maid ... PL 404 106.3 22.8 78.1 67 0 0 0 403 25
07/19/15 Video View Rasmus, Colby HOU Gallardo, Yovani TEX 3 Minute Maid ... PL 340 94.7 37.2 62.8 112 0 1 0 339 12
07/19/15 Video View Tucker, Preston HOU Ranaudo, Anthony TEX 7 Minute Maid ... PL 360 97.8 29.2 117.1 77 0 1 0 359 14
07/18/15 Video View Odor, Rougned TEX Feldman, Scott HOU 3 Minute Maid ... ND 419 110.3 26.8 63.7 84 0 0 0 419 30
07/18/15 Video View Chirinos, Robinson TEX Feldman, Scott HOU 6 Minute Maid ... PL 376 99.8 25.9 109.4 71 0 0 0 376 10
07/18/15 Video View Correa, Carlos HOU Lewis, Colby TEX 7 Minute Maid ... PL 430 105.2 25.9 93.6 92 0 0 0 429 28
07/18/15 Video View Hamilton, Josh TEX Thatcher, Joe HOU 8 Minute Maid ... JE 396 108.1 21.0 77.7 58 0 0 0 396 20
07/18/15 Video View Conger, Hank HOU Tolleson, Shawn TEX 9 Minute Maid ... PL 347 93.1 34.5 108.7 102 0 1 0 347 1
07/01/15 Video View Morales, Kendrys KC Velasquez, Vincent HOU 1 Minute Maid ... PL 350 93.2 33.4 108.9 97 0 1 0 349 1
07/01/15 Video View Carter, Chris HOU Volquez, Edinson KC 4 Minute Maid ... PL 370 97.9 27.2 107.0 75 0 0 0 370 8
07/01/15 Video View Gonzalez, Marwin HOU Volquez, Edinson KC 5 Minute Maid ... PL 399 106.8 24.2 70.7 69 0 1 0 399 30
06/30/15 Video View Springer, George HOU Duffy, Danny KC 3 Minute Maid ... ND 373 100.8 33.4 122.1 100 0 0 0 372 30
06/29/15 Video View Altuve, Jose HOU Blanton, Joe KC 3 Minute Maid ... PL 365 99.7 40.1 114.6 139 22 5 0 339 4
06/29/15 Video View Carter, Chris HOU Finnegan, Brandon KC 5 Minute Maid ... PL/L 419 103.3 34.1 94.1 135 6 3 0 409 24
06/29/15 Video View Perez, Salvador KC McCullers, Lance HOU 7 Minute Maid ... ND 394 101.9 31.5 113.5 99 4 2 0 388 30
06/27/15 Video View McCann, Brian NYY Oberholtzer, Brett HOU 1 Minute Maid ... ND 424 109.4 28.2 66.5 94 0 0 0 424 30
06/27/15 Video View Young, Chris NYY Oberholtzer, Brett HOU 2 Minute Maid ... PL 356 94.1 32.4 107.9 94 0 0 0 356 2
06/27/15 Video View Carter, Chris HOU Tanaka, Masahiro NYY 4 Minute Maid ... ND 397 106.8 27.7 121.3 79 0 0 0 397 30
06/27/15 Video View Altuve, Jose HOU Tanaka, Masahiro NYY 5 Minute Maid ... PL 354 93.9 31.3 108.2 88 0 0 0 354 1
06/27/15 Video View Correa, Carlos HOU Tanaka, Masahiro NYY 5 Minute Maid ... PL 372 98.9 29.2 67.4 83 0 0 0 372 23
06/27/15 Video View Headley, Chase NYY Sipp, Tony HOU 9 Minute Maid ... ND 411 104.4 32.0 104.7 120 0 1 0 411 30
06/26/15 Video View Young, Chris NYY Harris, Will HOU 7 Minute Maid ... PL 374 102.2 23.8 107.4 62 0 0 0 374 7
06/16/15 Video View Valbuena, Luis HOU Rusin, Chris COL 2 Minute Maid ... JE 342 92.1 35.6 107.7 107 0 0 0 341 0
06/16/15 Video View Valbuena, Luis HOU Rusin, Chris COL 3 Minute Maid ... PL 417 105.0 26.3 78.5 87 0 0 0 417 29
06/16/15 Video View Gonzalez, Carlos COL Velasquez, Vincent HOU 5 Minute Maid ... ND 437 110.6 25.0 75.6 85 0 0 0 437 30
06/16/15 Video View Conger, Hank HOU Brown, Brooks COL 5 Minute Maid ... JE 345 97.4 38.9 69.4 135 0 1 0 344 4
06/15/15 Video View Rasmus, Colby HOU Bettis, Chad COL 1 Minute Maid ... PL 417 104.7 25.9 80.2 86 0 0 0 417 29
06/15/15 Video View Springer, George HOU Bettis, Chad COL 2 Minute Maid ... PL 351 94.0 31.3 111.7 86 0 1 0 350 1
06/15/15 Video View Springer, George HOU Hawkins, LaTroy COL 7 Minute Maid ... PL 429 108.9 22.5 82.7 74 0 0 0 429 29
06/14/15 Video View Valbuena, Luis HOU Farquhar, Danny SEA 4 Minute Maid ... ND 430 108.4 26.7 74.9 93 0 1 0 430 30
06/14/15 Video View Gonzalez, Marwin HOU Furbush, Charlie SEA 6 Minute Maid ... PL 348 93.8 35.3 110.1 107 0 0 0 347 2
06/13/15 Video View Morrison, Logan SEA McHugh, Collin HOU 1 Minute Maid ... PL 414 107.9 24.1 74.7 74 0 0 1 414 30
06/13/15 Video View Morrison, Logan SEA McHugh, Collin HOU 3 Minute Maid ... PL 405 102.9 31.9 75.8 116 0 1 0 405 30
06/12/15 Video View Valbuena, Luis HOU Hernandez, Felix SEA 1 Minute Maid ... PL 422 107.0 23.6 81.2 77 0 0 0 421 28
06/12/15 Video View Castro, Jason HOU Hernandez, Felix SEA 1 Minute Maid ... PL 350 95.4 30.4 117.2 79 0 1 0 350 7
06/12/15 Video View Correa, Carlos HOU Beimel, Joe SEA 2 Minute Maid ... PL 407 102.2 27.1 80.5 89 0 0 0 407 27
06/12/15 Video View Carter, Chris HOU Furbush, Charlie SEA 5 Minute Maid ... PL 432 106.3 31.2 97.3 127 0 1 0 431 30
06/04/15 Video View Conger, Hank HOU Chen, Wei-Yin BAL 3 Minute Maid ... PL 374 98.6 35.2 104.9 124 0 1 0 374 18
06/04/15 Video N/A Jones, Adam BAL Qualls, Chad HOU 8 Minute Maid ... 0 0.0 0.0 0.0 0 0 0 0 0 0
06/03/15 Video View Carter, Chris HOU Gonzalez, Miguel BAL 2 Minute Maid ... PL 360 98.8 39.9 111.8 139 17 5 0 339 2
06/03/15 Video View Carter, Chris HOU Gonzalez, Miguel BAL 5 Minute Maid ... ND 454 109.3 25.9 95.9 98 1 1 0 451 30
06/03/15 Video View Springer, George HOU Gonzalez, Miguel BAL 6 Minute Maid ... JE 362 108.3 20.6 116.0 47 0 0 0 361 1
06/02/15 Video View Gattis, Evan HOU Wright, Mike BAL 3 Minute Maid ... ND 374 106.8 36.1 109.8 151 -27 5 0 394 30
06/02/15 Video View Valbuena, Luis HOU Wright, Mike BAL 3 Minute Maid ... PL 417 109.3 22.9 76.4 70 -1 1 0 417 29
06/01/15 Video View Valbuena, Luis HOU Jimenez, Ubaldo BAL 5 Minute Maid ... PL 371 106.2 22.8 63.4 55 0 1 0 370 22
05/31/15 Video View LaRoche, Adam CHW Buchanan, Jake HOU 7 Minute Maid ... PL 361 97.2 29.0 113.3 78 0 0 0 361 11
05/30/15 Video View Gattis, Evan HOU Jennings, Dan CHW 8 Minute Maid ... PL 351 94.8 33.2 115.0 94 0 0 0 350 10
05/30/15 Video View Carter, Chris HOU Jennings, Dan CHW 8 Minute Maid ... PL 391 99.8 31.2 103.7 105 0 0 0 391 27
05/29/15 Video View Beckham, Gordon CHW Qualls, Chad HOU 8 Minute Maid ... JE 406 103.1 26.0 100.6 83 0 0 0 406 30
05/20/15 Video View Gattis, Evan HOU Hahn, Jesse OAK 6 Minute Maid ... ND 450 110.8 27.4 102.7 105 0 0 0 449 30
05/19/15 Video View Rasmus, Colby HOU Abad, Fernando OAK 8 Minute Maid ... PL 370 99.2 35.8 70.5 124 0 1 0 369 24
05/19/15 Video View Castro, Jason HOU Abad, Fernando OAK 8 Minute Maid ... PL 350 96.8 29.5 58.2 73 0 0 0 349 20
05/19/15 Video View Carter, Chris HOU Gray, Sonny OAK 2 Minute Maid ... ND 389 103.9 33.9 119.1 113 0 1 0 388 30
05/19/15 Video View Muncy, Max OAK Hernandez, Roberto HOU 6 Minute Maid ... JE 342 96.6 27.5 58.5 64 0 0 0 342 6
05/17/15 Video View Valbuena, Luis HOU Buehrle, Mark TOR 1 Minute Maid ... PL 355 93.8 33.5 106.3 101 0 1 0 354 1
05/17/15 Video View Rasmus, Colby HOU Buehrle, Mark TOR 6 Minute Maid ... ND 391 105.2 35.6 67.6 136 0 1 0 390 30
05/16/15 Video View Gattis, Evan HOU Estrada, Marco TOR 3 Minute Maid ... PL 400 102.0 33.2 102.4 124 0 1 0 399 30
05/16/15 Video View Carter, Chris HOU Hendriks, Liam TOR 6 Minute Maid ... JE 415 108.1 22.0 80.5 67 0 0 0 415 27
05/16/15 Video View Gonzalez, Marwin HOU Hendriks, Liam TOR 6 Minute Maid ... JE 392 108.4 20.7 76.7 56 0 0 0 392 18
05/16/15 Video View Encarnacion, Edwin TOR Gregerson, Luke HOU 9 Minute Maid ... ND 415 104.4 30.0 104.0 108 0 0 0 415 30
05/15/15 Video View Springer, George HOU Dickey, R.A. TOR 3 Minute Maid ... JE 437 106.3 27.0 84.9 101 0 0 0 436 29
05/15/15 Video View Altuve, Jose HOU Dickey, R.A. TOR 4 Minute Maid ... PL 415 102.2 29.3 95.8 106 0 0 0 414 25
05/15/15 Video View Valbuena, Luis HOU Tepera, Ryan TOR 7 Minute Maid ... ND 390 103.7 34.4 66.3 122 0 1 0 389 30
05/14/15 Video View Bautista, Jose TOR Hernandez, Roberto HOU 1 Minute Maid ... ND 424 108.9 26.5 109.2 87 0 0 0 423 30
05/14/15 Video View Encarnacion, Edwin TOR Hernandez, Roberto HOU 1 Minute Maid ... ND 419 110.4 27.9 119.6 88 0 0 0 419 30
05/13/15 Video View Posey, Buster SF Deduno, Samuel HOU 5 Minute Maid ... ND 388 101.6 32.8 111.3 110 0 0 0 387 30
05/13/15 Video View Castro, Jason HOU Hudson, Tim SF 5 Minute Maid ... JE 425 110.6 20.5 83.5 64 0 0 0 425 27
05/13/15 Video View Valbuena, Luis HOU Hudson, Tim SF 6 Minute Maid ... JE 400 100.2 29.8 80.9 101 0 0 0 399 24
05/13/15 Video View Springer, George HOU Affeldt, Jeremy SF 8 Minute Maid ... JE 420 110.6 19.6 95.3 60 0 0 0 420 25
05/12/15 Video View Castro, Jason HOU Heston, Chris SF 2 Minute Maid ... JE 360 95.1 33.0 72.0 100 0 0 0 360 11
05/06/15 Video View Peguero, Carlos TEX Deduno, Samuel HOU 2 Minute Maid ... PL 410 104.1 26.1 104.0 82 4 1 0 406 30
05/06/15 Video View Choo, Shin-Soo TEX Deduno, Samuel HOU 2 Minute Maid ... JE 339 93.1 37.6 110.8 116 3 1 0 335 0
05/06/15 Video View Peguero, Carlos TEX Harris, Will HOU 7 Minute Maid ... PL 362 97.8 28.5 114.3 76 0 0 0 362 13
05/06/15 Video View Carter, Chris HOU Patton, Spencer TEX 9 Minute Maid ... PL 427 111.8 21.1 79.8 66 0 0 0 426 29
05/05/15 Video View Peguero, Carlos TEX Feldman, Scott HOU 1 Minute Maid ... JE 367 108.8 20.2 68.5 48 0 0 0 367 5
05/05/15 Video View Valbuena, Luis HOU Rodriguez, Wandy TEX 1 Minute Maid ... ND 400 104.9 33.0 66.3 116 0 1 0 399 30
05/05/15 Video View Blanks, Kyle TEX Chapman, Kevin HOU 5 Minute Maid ... JE 415 102.0 30.0 94.0 110 0 0 0 414 22
05/03/15 Video View Gattis, Evan HOU Happ, J.A. SEA 1 Minute Maid ... JE 363 102.8 24.2 116.8 59 0 0 0 362 10
05/03/15 Video View Carter, Chris HOU Happ, J.A. SEA 3 Minute Maid ... ND 400 103.3 31.1 118.5 93 10 1 0 389 30
05/03/15 Video View Gattis, Evan HOU Smith, Carson SEA 8 Minute Maid ... JE 368 109.2 20.0 110.7 47 0 0 0 368 1
05/02/15 Video View Cruz, Nelson SEA McHugh, Collin HOU 2 Minute Maid ... PL/L 378 96.5 32.2 103.9 101 4 1 0 373 11
05/02/15 Video View Morrison, Logan SEA McHugh, Collin HOU 2 Minute Maid ... ND 424 106.7 25.7 76.4 84 4 1 0 420 29
05/02/15 Video View Zunino, Mike SEA McHugh, Collin HOU 2 Minute Maid ... PL 346 94.5 32.4 61.1 87 0 1 0 345 10
05/02/15 Video View Rasmus, Colby HOU Walker, Taijuan SEA 3 Minute Maid ... PL 377 99.1 35.7 73.5 127 3 1 0 372 14
05/02/15 Video View Gattis, Evan HOU Walker, Taijuan SEA 3 Minute Maid ... ND 380 98.8 32.5 113.0 99 6 1 0 373 29
05/02/15 Video View Altuve, Jose HOU Walker, Taijuan SEA 4 Minute Maid ... JE/L 410 100.7 28.2 94.9 95 3 1 0 406 20
05/02/15 Video View Valbuena, Luis HOU Medina, Yoervis SEA 4 Minute Maid ... JE/L 331 91.1 38.5 117.2 108 10 1 0 319 0
05/02/15 Video View Cruz, Nelson SEA McHugh, Collin HOU 6 Minute Maid ... ND 418 104.5 32.6 107.6 117 15 -4 0 405 30
05/02/15 Video View Conger, Hank HOU Olson, Tyler SEA 7 Minute Maid ... JE 357 92.2 32.6 106.2 90 9 0 0 348 0
05/01/15 Video View Gattis, Evan HOU Elias, Roenis SEA 1 Minute Maid ... JE 359 102.1 22.9 111.0 55 0 1 0 358 1
05/01/15 Video View Marisnick, Jake HOU Elias, Roenis SEA 2 Minute Maid ... JE 369 104.4 22.6 111.2 55 0 0 0 368 5
05/01/15 Video View Springer, George HOU Olson, Tyler SEA 8 Minute Maid ... ND 392 102.2 30.4 114.3 93 3 1 0 389 30
05/01/15 Video View Cruz, Nelson SEA Gregerson, Luke HOU 9 Minute Maid ... ND 442 107.1 29.7 96.7 119 2 1 0 439 30
05/01/15 Video View Morrison, Logan SEA Gregerson, Luke HOU 9 Minute Maid ... JE 373 103.8 23.4 69.6 60 0 0 0 373 17
04/19/15 Video View Valbuena, Luis HOU Richards, Garrett LAA 3 Minute Maid ... JE 353 93.5 33.3 106.9 98 0 0 0 353 1
04/19/15 Video View Cron, C.J. LAA Feldman, Scott HOU 4 Minute Maid ... JE 348 98.0 27.5 123.1 65 0 0 0 347 7
04/19/15 Video View Pujols, Albert LAA Neshek, Pat HOU 8 Minute Maid ... JE 330 94.7 39.2 117.3 122 0 1 0 329 1
04/18/15 Video View Springer, George HOU Wilson, C.J. LAA 6 Minute Maid ... ND 401 111.0 23.5 117.2 64 0 0 0 401 30
04/18/15 Video View Grossman, Robbie HOU Morin, Mike LAA 7 Minute Maid ... PL 366 105.0 24.0 121.6 58 0 0 0 366 24
04/17/15 Video View Trout, Mike LAA Qualls, Chad HOU 8 Minute Maid ... PL 396 106.2 23.6 72.9 66 0 0 0 396 27
04/17/15 Video View Trout, Mike LAA Hernandez, Roberto HOU 6 Minute Maid ... PL 363 96.6 27.8 107.6 75 0 1 0 362 2
04/17/15 Video View Castro, Jason HOU Weaver, Jered LAA 6 Minute Maid ... JE 356 94.6 30.6 70.2 85 0 0 0 355 6
04/15/15 Video View Lowrie, Jed HOU Pomeranz, Drew OAK 1 Minute Maid ... ND 394 101.8 34.6 110.3 121 8 1 0 384 30
04/15/15 Video View Gattis, Evan HOU Alvarez, R.J. OAK 8 Minute Maid ... JE 421 102.8 27.5 92.9 97 2 0 0 419 25
04/15/15 Video View Valbuena, Luis HOU Scribner, Evan OAK 7 Minute Maid ... JE/L 340 91.4 37.3 108.5 110 9 0 0 331 0
04/13/15 Video View Lawrie, Brett OAK Feldman, Scott HOU 2 Minute Maid ... JE 416 102.4 26.5 95.3 88 2 1 0 413 22
04/13/15 Video View Altuve, Jose HOU Kazmir, Scott OAK 4 Minute Maid ... ND 415 106.8 29.1 114.2 94 2 2 0 411 30
04/13/15 Video View Semien, Marcus OAK Feldman, Scott HOU 5 Minute Maid ... ND 386 101.5 29.1 114.4 84 3 2 0 382 30
04/13/15 Video View Butler, Billy OAK Feldman, Scott HOU 5 Minute Maid ... ND 420 105.3 33.1 107.9 123 11 3 0 407 30
04/09/15 Video View Perez, Roberto CLE Wojciechowski, Asher HOU 4 Minute Maid ... JE 416 102.9 26.3 94.6 90 0 0 0 416 24
04/09/15 Video View Ramirez, Jose CLE Wojciechowski, Asher HOU 5 Minute Maid ... PL 360 97.5 29.8 62.9 79 0 1 0 360 24
04/09/15 Video View Lowrie, Jed HOU Hagadone, Nick CLE 9 Minute Maid ... JE 400 103.9 24.9 103.7 75 0 1 0 399 30
04/08/15 Video View Santana, Carlos CLE Feldman, Scott HOU 4 Minute Maid ... JE 346 93.4 32.3 64.4 86 2 1 0 343 3
04/08/15 Video View Aviles, Mike CLE Neshek, Pat HOU 8 Minute Maid ... ND 406 105.1 28.1 113.0 85 4 0 0 401 30


About HitTracker | Contact Us
© 2006-2015 HitTrackerOnline